sensor_id;sensor_type;location;lat;lon;timestamp;temperature;humidity
3190;DHT22;1606;51.946;10.558;2022-10-03T00:02:37;13.90;99.90
3190;DHT22;1606;51.946;10.558;2022-10-03T00:05:29;13.90;99.90
3190;DHT22;1606;51.946;10.558;2022-10-03T00:08:06;13.90;99.90
3190;DHT22;1606;51.946;10.558;2022-10-03T00:10:50;13.80;99.90
3190;DHT22;1606;51.946;10.558;2022-10-03T00:13:27;13.90;99.90
3190;DHT22;1606;51.946;10.558;2022-10-03T00:16:07;13.90;99.90
3190;DHT22;1606;51.946;10.558;2022-10-03T00:18:48;14.10;99.90
3190;DHT22;1606;51.946;10.558;2022-10-03T00:21:40;14.40;99.90
3190;DHT22;1606;51.946;10.558;2022-10-03T00:24:21;14.30;99.90
3190;DHT22;1606;51.946;10.558;2022-10-03T00:26:55;14.10;99.90
3190;DHT22;1606;51.946;10.558;2022-10-03T00:29:42;14.30;99.90
3190;DHT22;1606;51.946;10.558;2022-10-03T00:32:25;14.10;99.90
3190;DHT22;1606;51.946;10.558;2022-10-03T00:35:04;14.30;99.90
3190;DHT22;1606;51.946;10.558;2022-10-03T00:37:38;14.20;99.90
3190;DHT22;1606;51.946;10.558;2022-10-03T00:40:44;14.00;99.90
3190;DHT22;1606;51.946;10.558;2022-10-03T00:43:50;14.10;99.90
3190;DHT22;1606;51.946;10.558;2022-10-03T00:50:13;13.80;99.90
3190;DHT22;1606;51.946;10.558;2022-10-03T00:53:02;13.90;99.90
3190;DHT22;1606;51.946;10.558;2022-10-03T00:55:55;13.80;99.90
3190;DHT22;1606;51.946;10.558;2022-10-03T00:58:38;14.20;99.90
3190;DHT22;1606;51.946;10.558;2022-10-03T01:01:23;14.40;99.90
3190;DHT22;1606;51.946;10.558;2022-10-03T01:04:02;14.60;99.90
3190;DHT22;1606;51.946;10.558;2022-10-03T01:06:40;14.40;99.90
3190;DHT22;1606;51.946;10.558;2022-10-03T01:09:18;14.30;99.90
3190;DHT22;1606;51.946;10.558;2022-10-03T01:11:56;14.20;99.90
3190;DHT22;1606;51.946;10.558;2022-10-03T01:14:47;14.20;99.90
3190;DHT22;1606;51.946;10.558;2022-10-03T01:17:25;14.10;99.90
3190;DHT22;1606;51.946;10.558;2022-10-03T01:20:09;13.80;99.90
3190;DHT22;1606;51.946;10.558;2022-10-03T01:23:20;13.90;99.90
3190;DHT22;1606;51.946;10.558;2022-10-03T01:25:56;13.90;99.90
3190;DHT22;1606;51.946;10.558;2022-10-03T01:28:52;13.90;99.90
3190;DHT22;1606;51.946;10.558;2022-10-03T01:31:45;13.70;99.90
3190;DHT22;1606;51.946;10.558;2022-10-03T01:34:22;13.90;99.90
3190;DHT22;1606;51.946;10.558;2022-10-03T01:36:59;14.20;99.90
3190;DHT22;1606;51.946;10.558;2022-10-03T01:39:38;13.90;99.90
3190;DHT22;1606;51.946;10.558;2022-10-03T01:42:13;14.00;99.90
3190;DHT22;1606;51.946;10.558;2022-10-03T01:44:55;14.10;99.90
3190;DHT22;1606;51.946;10.558;2022-10-03T01:47:34;14.20;99.90
3190;DHT22;1606;51.946;10.558;2022-10-03T01:50:13;14.30;99.90
3190;DHT22;1606;51.946;10.558;2022-10-03T01:52:48;14.10;99.90
3190;DHT22;1606;51.946;10.558;2022-10-03T01:55:22;13.90;99.90
3190;DHT22;1606;51.946;10.558;2022-10-03T01:57:58;13.70;99.90
3190;DHT22;1606;51.946;10.558;2022-10-03T02:00:34;13.80;99.90
3190;DHT22;1606;51.946;10.558;2022-10-03T02:03:13;13.80;99.90
3190;DHT22;1606;51.946;10.558;2022-10-03T02:05:52;13.70;99.90
3190;DHT22;1606;51.946;10.558;2022-10-03T02:08:27;13.90;99.90
3190;DHT22;1606;51.946;10.558;2022-10-03T02:11:00;14.00;99.90
3190;DHT22;1606;51.946;10.558;2022-10-03T02:13:40;13.80;99.90
3190;DHT22;1606;51.946;10.558;2022-10-03T02:16:17;13.80;99.90
3190;DHT22;1606;51.946;10.558;2022-10-03T02:18:57;13.90;99.90
3190;DHT22;1606;51.946;10.558;2022-10-03T02:21:29;13.70;99.90
3190;DHT22;1606;51.946;10.558;2022-10-03T02:24:16;13.80;99.90
3190;DHT22;1606;51.946;10.558;2022-10-03T02:27:13;14.00;99.90
3190;DHT22;1606;51.946;10.558;2022-10-03T02:30:04;14.00;99.90
3190;DHT22;1606;51.946;10.558;2022-10-03T02:32:58;13.80;99.90
3190;DHT22;1606;51.946;10.558;2022-10-03T02:35:48;14.00;99.90
3190;DHT22;1606;51.946;10.558;2022-10-03T02:38:43;13.70;99.90
3190;DHT22;1606;51.946;10.558;2022-10-03T02:41:30;13.50;99.90
3190;DHT22;1606;51.946;10.558;2022-10-03T02:44:34;13.70;99.90
3190;DHT22;1606;51.946;10.558;2022-10-03T02:47:29;13.90;99.90
3190;DHT22;1606;51.946;10.558;2022-10-03T02:50:16;13.90;99.90
3190;DHT22;1606;51.946;10.558;2022-10-03T02:56:21;14.10;99.90
3190;DHT22;1606;51.946;10.558;2022-10-03T02:59:17;13.80;99.90
3190;DHT22;1606;51.946;10.558;2022-10-03T03:02:15;13.90;99.90
3190;DHT22;1606;51.946;10.558;2022-10-03T03:05:06;13.90;99.90
3190;DHT22;1606;51.946;10.558;2022-10-03T03:08:05;14.10;99.90
3190;DHT22;1606;51.946;10.558;2022-10-03T03:11:03;14.20;99.90
3190;DHT22;1606;51.946;10.558;2022-10-03T03:13:53;13.90;99.90
3190;DHT22;1606;51.946;10.558;2022-10-03T03:16:41;13.90;99.90
3190;DHT22;1606;51.946;10.558;2022-10-03T03:19:29;13.90;99.90
3190;DHT22;1606;51.946;10.558;2022-10-03T03:22:12;13.80;99.90
3190;DHT22;1606;51.946;10.558;2022-10-03T03:24:54;13.80;99.90
3190;DHT22;1606;51.946;10.558;2022-10-03T03:27:35;13.50;99.90
3190;DHT22;1606;51.946;10.558;2022-10-03T03:30:10;13.40;99.90
3190;DHT22;1606;51.946;10.558;2022-10-03T03:32:55;13.40;99.90
3190;DHT22;1606;51.946;10.558;2022-10-03T03:35:34;13.30;99.90
3190;DHT22;1606;51.946;10.558;2022-10-03T03:38:14;13.40;99.90
3190;DHT22;1606;51.946;10.558;2022-10-03T03:40:57;13.50;99.90
3190;DHT22;1606;51.946;10.558;2022-10-03T03:43:40;13.40;99.90
3190;DHT22;1606;51.946;10.558;2022-10-03T03:46:29;13.50;99.90
3190;DHT22;1606;51.946;10.558;2022-10-03T03:49:08;13.50;99.90
3190;DHT22;1606;51.946;10.558;2022-10-03T03:51:42;13.60;99.90
3190;DHT22;1606;51.946;10.558;2022-10-03T03:54:56;13.70;99.90
3190;DHT22;1606;51.946;10.558;2022-10-03T03:57:45;13.80;99.90
3190;DHT22;1606;51.946;10.558;2022-10-03T04:00:19;13.70;99.90
3190;DHT22;1606;51.946;10.558;2022-10-03T04:02:58;13.40;99.90
3190;DHT22;1606;51.946;10.558;2022-10-03T04:05:43;13.50;99.90
3190;DHT22;1606;51.946;10.558;2022-10-03T04:08:37;13.30;99.90
3190;DHT22;1606;51.946;10.558;2022-10-03T04:11:17;13.50;99.90
3190;DHT22;1606;51.946;10.558;2022-10-03T04:13:58;13.60;99.90
3190;DHT22;1606;51.946;10.558;2022-10-03T04:16:38;13.80;99.90
3190;DHT22;1606;51.946;10.558;2022-10-03T04:19:35;13.90;99.90
3190;DHT22;1606;51.946;10.558;2022-10-03T04:22:17;13.80;99.90
3190;DHT22;1606;51.946;10.558;2022-10-03T04:25:07;13.70;99.90
3190;DHT22;1606;51.946;10.558;2022-10-03T04:27:53;13.90;99.90
3190;DHT22;1606;51.946;10.558;2022-10-03T04:30:38;13.90;99.90
3190;DHT22;1606;51.946;10.558;2022-10-03T04:33:19;13.60;99.90
3190;DHT22;1606;51.946;10.558;2022-10-03T04:38:44;13.70;99.90
3190;DHT22;1606;51.946;10.558;2022-10-03T04:41:23;13.90;99.90
3190;DHT22;1606;51.946;10.558;2022-10-03T04:43:58;13.70;99.90
3190;DHT22;1606;51.946;10.558;2022-10-03T04:46:36;13.80;99.90
3190;DHT22;1606;51.946;10.558;2022-10-03T04:49:14;13.90;99.90
3190;DHT22;1606;51.946;10.558;2022-10-03T04:51:51;13.70;99.90
3190;DHT22;1606;51.946;10.558;2022-10-03T04:54:28;13.60;99.90
3190;DHT22;1606;51.946;10.558;2022-10-03T04:57:01;13.60;99.90
3190;DHT22;1606;51.946;10.558;2022-10-03T04:59:44;13.90;99.90
3190;DHT22;1606;51.946;10.558;2022-10-03T05:02:33;13.90;99.90
3190;DHT22;1606;51.946;10.558;2022-10-03T05:05:26;13.80;99.90
3190;DHT22;1606;51.946;10.558;2022-10-03T05:08:02;13.60;99.90
3190;DHT22;1606;51.946;10.558;2022-10-03T05:10:43;13.80;99.90
3190;DHT22;1606;51.946;10.558;2022-10-03T05:13:15;13.80;99.90
3190;DHT22;1606;51.946;10.558;2022-10-03T05:15:53;13.90;99.90
3190;DHT22;1606;51.946;10.558;2022-10-03T05:18:31;13.70;99.90
3190;DHT22;1606;51.946;10.558;2022-10-03T05:21:07;13.60;99.90
3190;DHT22;1606;51.946;10.558;2022-10-03T05:23:48;13.60;99.90
3190;DHT22;1606;51.946;10.558;2022-10-03T05:26:24;13.80;99.90
3190;DHT22;1606;51.946;10.558;2022-10-03T05:29:16;14.10;99.90
3190;DHT22;1606;51.946;10.558;2022-10-03T05:31:52;13.80;99.90
3190;DHT22;1606;51.946;10.558;2022-10-03T05:34:33;13.50;99.90
3190;DHT22;1606;51.946;10.558;2022-10-03T05:37:28;13.70;99.90
3190;DHT22;1606;51.946;10.558;2022-10-03T05:40:01;13.80;99.90
3190;DHT22;1606;51.946;10.558;2022-10-03T05:42:57;13.80;99.90
3190;DHT22;1606;51.946;10.558;2022-10-03T05:45:30;13.50;99.90
3190;DHT22;1606;51.946;10.558;2022-10-03T05:48:12;13.60;99.90
3190;DHT22;1606;51.946;10.558;2022-10-03T05:54:15;13.70;99.90
3190;DHT22;1606;51.946;10.558;2022-10-03T05:57:00;13.80;99.90
3190;DHT22;1606;51.946;10.558;2022-10-03T06:02:51;13.50;99.90
3190;DHT22;1606;51.946;10.558;2022-10-03T06:05:26;13.30;99.90
3190;DHT22;1606;51.946;10.558;2022-10-03T06:08:23;13.50;99.90
3190;DHT22;1606;51.946;10.558;2022-10-03T06:11:01;13.90;99.90
3190;DHT22;1606;51.946;10.558;2022-10-03T06:13:50;13.90;99.90
3190;DHT22;1606;51.946;10.558;2022-10-03T06:16:31;13.70;99.90
3190;DHT22;1606;51.946;10.558;2022-10-03T06:19:09;13.40;99.90
3190;DHT22;1606;51.946;10.558;2022-10-03T06:28:25;13.50;99.90
3190;DHT22;1606;51.946;10.558;2022-10-03T06:31:14;13.30;99.90
3190;DHT22;1606;51.946;10.558;2022-10-03T06:34:09;13.40;99.90
3190;DHT22;1606;51.946;10.558;2022-10-03T06:36:55;13.30;99.90
3190;DHT22;1606;51.946;10.558;2022-10-03T06:48:43;13.90;99.90
3190;DHT22;1606;51.946;10.558;2022-10-03T06:51:36;13.80;99.90
3190;DHT22;1606;51.946;10.558;2022-10-03T06:54:52;14.00;99.90
3190;DHT22;1606;51.946;10.558;2022-10-03T07:00:51;13.70;99.90
3190;DHT22;1606;51.946;10.558;2022-10-03T07:10:00;13.90;99.90
3190;DHT22;1606;51.946;10.558;2022-10-03T07:12:54;13.90;99.90
3190;DHT22;1606;51.946;10.558;2022-10-03T07:15:51;14.10;99.90
3190;DHT22;1606;51.946;10.558;2022-10-03T07:22:13;14.00;99.90
3190;DHT22;1606;51.946;10.558;2022-10-03T07:25:09;14.10;99.90
3190;DHT22;1606;51.946;10.558;2022-10-03T07:27:53;14.10;99.90
3190;DHT22;1606;51.946;10.558;2022-10-03T07:30:28;14.20;99.90
3190;DHT22;1606;51.946;10.558;2022-10-03T07:36:50;14.10;99.90
3190;DHT22;1606;51.946;10.558;2022-10-03T07:43:04;14.20;99.90
3190;DHT22;1606;51.946;10.558;2022-10-03T07:45:40;13.90;99.90
3190;DHT22;1606;51.946;10.558;2022-10-03T07:48:49;13.70;99.90
3190;DHT22;1606;51.946;10.558;2022-10-03T07:51:22;13.80;99.90
3190;DHT22;1606;51.946;10.558;2022-10-03T07:54:38;14.10;99.90
3190;DHT22;1606;51.946;10.558;2022-10-03T07:57:32;14.20;99.90
3190;DHT22;1606;51.946;10.558;2022-10-03T08:03:28;14.10;99.90
3190;DHT22;1606;51.946;10.558;2022-10-03T08:06:17;14.20;99.90
3190;DHT22;1606;51.946;10.558;2022-10-03T08:12:27;14.40;99.90
3190;DHT22;1606;51.946;10.558;2022-10-03T08:15:09;14.60;99.90
3190;DHT22;1606;51.946;10.558;2022-10-03T08:18:06;14.90;99.90
3190;DHT22;1606;51.946;10.558;2022-10-03T08:20:52;15.20;99.90
3190;DHT22;1606;51.946;10.558;2022-10-03T08:24:08;15.20;99.90
3190;DHT22;1606;51.946;10.558;2022-10-03T08:27:12;15.00;99.90
3190;DHT22;1606;51.946;10.558;2022-10-03T08:30:17;15.00;99.90
3190;DHT22;1606;51.946;10.558;2022-10-03T08:33:11;15.30;99.90
3190;DHT22;1606;51.946;10.558;2022-10-03T08:36:05;15.30;99.90
3190;DHT22;1606;51.946;10.558;2022-10-03T08:38:48;15.30;99.90
3190;DHT22;1606;51.946;10.558;2022-10-03T08:50:52;15.60;99.90
3190;DHT22;1606;51.946;10.558;2022-10-03T08:56:20;15.20;99.90
3190;DHT22;1606;51.946;10.558;2022-10-03T08:59:22;15.30;99.90
3190;DHT22;1606;51.946;10.558;2022-10-03T09:08:53;15.10;99.90
3190;DHT22;1606;51.946;10.558;2022-10-03T09:11:41;15.00;99.90
3190;DHT22;1606;51.946;10.558;2022-10-03T09:14:35;15.40;99.90
3190;DHT22;1606;51.946;10.558;2022-10-03T09:17:30;15.60;99.90
3190;DHT22;1606;51.946;10.558;2022-10-03T09:20:14;15.80;99.90
3190;DHT22;1606;51.946;10.558;2022-10-03T09:23:01;15.90;99.90
3190;DHT22;1606;51.946;10.558;2022-10-03T09:25:43;16.00;99.90
3190;DHT22;1606;51.946;10.558;2022-10-03T09:28:51;15.80;99.90
3190;DHT22;1606;51.946;10.558;2022-10-03T09:31:56;16.00;99.90
3190;DHT22;1606;51.946;10.558;2022-10-03T09:34:53;15.80;99.90
3190;DHT22;1606;51.946;10.558;2022-10-03T09:37:46;16.30;99.90
3190;DHT22;1606;51.946;10.558;2022-10-03T09:43:59;15.90;99.90
3190;DHT22;1606;51.946;10.558;2022-10-03T09:46:58;16.30;99.90
3190;DHT22;1606;51.946;10.558;2022-10-03T09:53:20;16.60;99.90
3190;DHT22;1606;51.946;10.558;2022-10-03T09:56:20;16.70;99.90
3190;DHT22;1606;51.946;10.558;2022-10-03T09:59:10;16.80;99.90
3190;DHT22;1606;51.946;10.558;2022-10-03T10:01:47;16.60;99.90
3190;DHT22;1606;51.946;10.558;2022-10-03T10:04:45;16.50;99.90
3190;DHT22;1606;51.946;10.558;2022-10-03T10:10:42;16.60;99.90
3190;DHT22;1606;51.946;10.558;2022-10-03T10:13:36;16.80;99.90
3190;DHT22;1606;51.946;10.558;2022-10-03T10:16:44;16.60;99.90
3190;DHT22;1606;51.946;10.558;2022-10-03T10:23:00;16.80;99.90
3190;DHT22;1606;51.946;10.558;2022-10-03T10:26:00;16.90;99.90
3190;DHT22;1606;51.946;10.558;2022-10-03T10:28:54;16.80;99.90
3190;DHT22;1606;51.946;10.558;2022-10-03T10:32:05;16.90;99.90
3190;DHT22;1606;51.946;10.558;2022-10-03T10:35:13;17.40;99.90
3190;DHT22;1606;51.946;10.558;2022-10-03T10:38:03;17.10;99.90
3190;DHT22;1606;51.946;10.558;2022-10-03T10:41:16;17.00;99.90
3190;DHT22;1606;51.946;10.558;2022-10-03T10:50:39;16.90;99.90
3190;DHT22;1606;51.946;10.558;2022-10-03T10:57:01;17.50;99.90
3190;DHT22;1606;51.946;10.558;2022-10-03T11:12:25;17.10;99.90
3190;DHT22;1606;51.946;10.558;2022-10-03T11:15:56;17.00;99.90
3190;DHT22;1606;51.946;10.558;2022-10-03T11:19:19;17.20;99.90
3190;DHT22;1606;51.946;10.558;2022-10-03T11:26:01;17.40;99.90
3190;DHT22;1606;51.946;10.558;2022-10-03T11:32:22;17.20;99.90
3190;DHT22;1606;51.946;10.558;2022-10-03T11:38:19;16.90;99.90
3190;DHT22;1606;51.946;10.558;2022-10-03T11:40:57;16.90;99.90
3190;DHT22;1606;51.946;10.558;2022-10-03T11:43:58;16.80;99.90
3190;DHT22;1606;51.946;10.558;2022-10-03T11:46:50;16.60;99.90
3190;DHT22;1606;51.946;10.558;2022-10-03T11:49:37;17.00;99.90
3190;DHT22;1606;51.946;10.558;2022-10-03T11:52:24;17.10;99.90
3190;DHT22;1606;51.946;10.558;2022-10-03T11:55:16;16.70;99.90
3190;DHT22;1606;51.946;10.558;2022-10-03T11:57:57;16.40;99.90
3190;DHT22;1606;51.946;10.558;2022-10-03T12:00:31;16.50;99.90
3190;DHT22;1606;51.946;10.558;2022-10-03T12:03:16;16.00;99.90
3190;DHT22;1606;51.946;10.558;2022-10-03T12:05:54;16.10;99.90
3190;DHT22;1606;51.946;10.558;2022-10-03T12:08:54;16.40;99.90
3190;DHT22;1606;51.946;10.558;2022-10-03T12:11:28;16.70;99.90
3190;DHT22;1606;51.946;10.558;2022-10-03T12:14:23;16.70;99.90
3190;DHT22;1606;51.946;10.558;2022-10-03T12:17:02;16.70;99.90
3190;DHT22;1606;51.946;10.558;2022-10-03T12:19:35;17.00;99.90
3190;DHT22;1606;51.946;10.558;2022-10-03T12:22:18;17.40;99.90
3190;DHT22;1606;51.946;10.558;2022-10-03T12:24:49;17.60;99.90
3190;DHT22;1606;51.946;10.558;2022-10-03T12:27:40;17.80;99.90
3190;DHT22;1606;51.946;10.558;2022-10-03T12:30:14;18.00;99.90
3190;DHT22;1606;51.946;10.558;2022-10-03T12:32:50;18.10;99.90
3190;DHT22;1606;51.946;10.558;2022-10-03T12:35:33;18.30;99.90
3190;DHT22;1606;51.946;10.558;2022-10-03T12:38:12;18.20;99.90
3190;DHT22;1606;51.946;10.558;2022-10-03T12:40:45;18.10;99.90
3190;DHT22;1606;51.946;10.558;2022-10-03T12:43:32;18.10;99.90
3190;DHT22;1606;51.946;10.558;2022-10-03T12:46:09;18.00;99.90
3190;DHT22;1606;51.946;10.558;2022-10-03T12:48:45;18.40;99.90
3190;DHT22;1606;51.946;10.558;2022-10-03T12:51:21;18.40;99.90
3190;DHT22;1606;51.946;10.558;2022-10-03T12:54:03;18.50;99.90
3190;DHT22;1606;51.946;10.558;2022-10-03T12:56:41;18.10;99.90
3190;DHT22;1606;51.946;10.558;2022-10-03T12:59:17;17.70;99.90
3190;DHT22;1606;51.946;10.558;2022-10-03T13:02:02;18.10;99.90
3190;DHT22;1606;51.946;10.558;2022-10-03T13:04:41;18.30;99.90
3190;DHT22;1606;51.946;10.558;2022-10-03T13:07:25;18.20;99.90
3190;DHT22;1606;51.946;10.558;2022-10-03T13:10:04;18.00;99.90
3190;DHT22;1606;51.946;10.558;2022-10-03T13:12:42;18.10;99.90
3190;DHT22;1606;51.946;10.558;2022-10-03T13:15:40;18.20;99.90
3190;DHT22;1606;51.946;10.558;2022-10-03T13:18:34;18.00;99.90
3190;DHT22;1606;51.946;10.558;2022-10-03T13:21:05;17.90;99.90
3190;DHT22;1606;51.946;10.558;2022-10-03T13:23:58;17.80;99.90
3190;DHT22;1606;51.946;10.558;2022-10-03T13:26:38;17.80;99.90
3190;DHT22;1606;51.946;10.558;2022-10-03T13:29:20;17.70;99.90
3190;DHT22;1606;51.946;10.558;2022-10-03T13:35:16;18.00;99.90
3190;DHT22;1606;51.946;10.558;2022-10-03T13:38:16;18.10;99.90
3190;DHT22;1606;51.946;10.558;2022-10-03T13:40:53;18.20;99.90
3190;DHT22;1606;51.946;10.558;2022-10-03T13:43:29;18.40;99.90
3190;DHT22;1606;51.946;10.558;2022-10-03T13:46:02;18.60;99.90
3190;DHT22;1606;51.946;10.558;2022-10-03T13:48:35;18.30;99.90
3190;DHT22;1606;51.946;10.558;2022-10-03T13:51:08;18.40;99.90
3190;DHT22;1606;51.946;10.558;2022-10-03T13:53:52;18.20;99.90
3190;DHT22;1606;51.946;10.558;2022-10-03T13:56:33;18.50;99.90
3190;DHT22;1606;51.946;10.558;2022-10-03T13:59:17;18.30;99.90
3190;DHT22;1606;51.946;10.558;2022-10-03T14:01:56;18.20;99.90
3190;DHT22;1606;51.946;10.558;2022-10-03T14:04:49;18.10;99.90
3190;DHT22;1606;51.946;10.558;2022-10-03T14:07:27;17.70;99.90
3190;DHT22;1606;51.946;10.558;2022-10-03T14:10:08;17.70;99.90
3190;DHT22;1606;51.946;10.558;2022-10-03T14:12:56;18.00;99.90
3190;DHT22;1606;51.946;10.558;2022-10-03T14:15:32;17.80;99.90
3190;DHT22;1606;51.946;10.558;2022-10-03T14:18:12;18.00;99.90
3190;DHT22;1606;51.946;10.558;2022-10-03T14:23:51;18.30;99.90
3190;DHT22;1606;51.946;10.558;2022-10-03T14:26:26;17.70;99.90
3190;DHT22;1606;51.946;10.558;2022-10-03T14:29:00;17.30;99.90
3190;DHT22;1606;51.946;10.558;2022-10-03T14:31:35;17.60;99.90
3190;DHT22;1606;51.946;10.558;2022-10-03T14:34:18;17.60;99.90
3190;DHT22;1606;51.946;10.558;2022-10-03T14:36:58;17.70;99.90
3190;DHT22;1606;51.946;10.558;2022-10-03T14:39:36;17.70;99.90
3190;DHT22;1606;51.946;10.558;2022-10-03T14:42:27;17.80;99.90
3190;DHT22;1606;51.946;10.558;2022-10-03T14:45:02;17.50;99.90
3190;DHT22;1606;51.946;10.558;2022-10-03T14:47:35;17.60;99.90
3190;DHT22;1606;51.946;10.558;2022-10-03T14:50:04;17.60;99.90
3190;DHT22;1606;51.946;10.558;2022-10-03T14:52:38;17.60;99.90
3190;DHT22;1606;51.946;10.558;2022-10-03T14:55:16;17.50;99.90
3190;DHT22;1606;51.946;10.558;2022-10-03T14:57:59;17.50;99.90
3190;DHT22;1606;51.946;10.558;2022-10-03T15:00:41;17.60;99.90
3190;DHT22;1606;51.946;10.558;2022-10-03T15:03:26;17.50;99.90
3190;DHT22;1606;51.946;10.558;2022-10-03T15:06:03;17.30;99.90
3190;DHT22;1606;51.946;10.558;2022-10-03T15:08:46;17.10;99.90
3190;DHT22;1606;51.946;10.558;2022-10-03T15:11:22;16.90;99.90
3190;DHT22;1606;51.946;10.558;2022-10-03T15:13:54;17.20;99.90
3190;DHT22;1606;51.946;10.558;2022-10-03T15:16:23;17.20;99.90
3190;DHT22;1606;51.946;10.558;2022-10-03T15:18:55;17.20;99.90
3190;DHT22;1606;51.946;10.558;2022-10-03T15:21:24;17.10;99.90
3190;DHT22;1606;51.946;10.558;2022-10-03T15:23:56;17.20;99.90
3190;DHT22;1606;51.946;10.558;2022-10-03T15:26:27;17.10;99.90
3190;DHT22;1606;51.946;10.558;2022-10-03T15:28:57;17.30;99.90
3190;DHT22;1606;51.946;10.558;2022-10-03T15:31:34;17.40;99.90
3190;DHT22;1606;51.946;10.558;2022-10-03T15:34:05;17.50;99.90
3190;DHT22;1606;51.946;10.558;2022-10-03T15:36:36;17.50;99.90
3190;DHT22;1606;51.946;10.558;2022-10-03T15:39:14;17.40;99.90
3190;DHT22;1606;51.946;10.558;2022-10-03T15:41:51;17.20;99.90
3190;DHT22;1606;51.946;10.558;2022-10-03T15:44:23;17.50;99.90
3190;DHT22;1606;51.946;10.558;2022-10-03T15:47:01;17.70;99.90
3190;DHT22;1606;51.946;10.558;2022-10-03T15:49:35;17.60;99.90
3190;DHT22;1606;51.946;10.558;2022-10-03T15:52:13;17.30;99.90
3190;DHT22;1606;51.946;10.558;2022-10-03T15:54:49;17.10;99.90
3190;DHT22;1606;51.946;10.558;2022-10-03T15:57:38;17.30;99.90
3190;DHT22;1606;51.946;10.558;2022-10-03T16:00:18;17.50;99.90
3190;DHT22;1606;51.946;10.558;2022-10-03T16:02:53;17.70;99.90
3190;DHT22;1606;51.946;10.558;2022-10-03T16:05:23;17.70;99.90
3190;DHT22;1606;51.946;10.558;2022-10-03T16:07:56;17.40;99.90
3190;DHT22;1606;51.946;10.558;2022-10-03T16:10:28;17.30;99.90
3190;DHT22;1606;51.946;10.558;2022-10-03T16:13:07;17.20;99.90
3190;DHT22;1606;51.946;10.558;2022-10-03T16:15:51;17.30;99.90
3190;DHT22;1606;51.946;10.558;2022-10-03T16:18:49;17.20;99.90
3190;DHT22;1606;51.946;10.558;2022-10-03T16:21:41;17.00;99.90
3190;DHT22;1606;51.946;10.558;2022-10-03T16:24:20;17.00;99.90
3190;DHT22;1606;51.946;10.558;2022-10-03T16:26:52;17.20;99.90
3190;DHT22;1606;51.946;10.558;2022-10-03T16:29:26;17.00;99.90
3190;DHT22;1606;51.946;10.558;2022-10-03T16:32:01;16.90;99.90
3190;DHT22;1606;51.946;10.558;2022-10-03T16:34:31;17.00;99.90
3190;DHT22;1606;51.946;10.558;2022-10-03T16:37:01;16.90;99.90
3190;DHT22;1606;51.946;10.558;2022-10-03T16:39:34;17.10;99.90
3190;DHT22;1606;51.946;10.558;2022-10-03T16:42:10;16.90;99.90
3190;DHT22;1606;51.946;10.558;2022-10-03T16:44:48;17.00;99.90
3190;DHT22;1606;51.946;10.558;2022-10-03T16:47:18;16.90;99.90
3190;DHT22;1606;51.946;10.558;2022-10-03T16:49:56;17.30;99.90
3190;DHT22;1606;51.946;10.558;2022-10-03T16:52:44;17.20;99.90
3190;DHT22;1606;51.946;10.558;2022-10-03T16:55:16;17.00;99.90
3190;DHT22;1606;51.946;10.558;2022-10-03T16:57:48;17.10;99.90
3190;DHT22;1606;51.946;10.558;2022-10-03T17:00:22;17.00;99.90
3190;DHT22;1606;51.946;10.558;2022-10-03T17:02:51;17.10;99.90
3190;DHT22;1606;51.946;10.558;2022-10-03T17:05:21;17.20;99.90
3190;DHT22;1606;51.946;10.558;2022-10-03T17:07:50;17.20;99.90
3190;DHT22;1606;51.946;10.558;2022-10-03T17:10:30;17.20;99.90
3190;DHT22;1606;51.946;10.558;2022-10-03T17:13:02;17.20;99.90
3190;DHT22;1606;51.946;10.558;2022-10-03T17:15:36;17.20;99.90
3190;DHT22;1606;51.946;10.558;2022-10-03T17:18:15;17.10;99.90
3190;DHT22;1606;51.946;10.558;2022-10-03T17:20:54;17.20;99.90
3190;DHT22;1606;51.946;10.558;2022-10-03T17:23:27;17.00;99.90
3190;DHT22;1606;51.946;10.558;2022-10-03T17:26:01;17.00;99.90
3190;DHT22;1606;51.946;10.558;2022-10-03T17:28:36;16.90;99.90
3190;DHT22;1606;51.946;10.558;2022-10-03T17:34:03;16.80;99.90
3190;DHT22;1606;51.946;10.558;2022-10-03T17:36:55;16.90;99.90
3190;DHT22;1606;51.946;10.558;2022-10-03T17:39:38;16.90;99.90
3190;DHT22;1606;51.946;10.558;2022-10-03T17:42:28;16.90;99.90
3190;DHT22;1606;51.946;10.558;2022-10-03T17:45:07;16.60;99.90
3190;DHT22;1606;51.946;10.558;2022-10-03T17:47:48;16.70;99.90
3190;DHT22;1606;51.946;10.558;2022-10-03T17:50:24;17.00;99.90
3190;DHT22;1606;51.946;10.558;2022-10-03T17:52:55;17.20;99.90
3190;DHT22;1606;51.946;10.558;2022-10-03T17:55:28;17.10;99.90
3190;DHT22;1606;51.946;10.558;2022-10-03T17:57:59;17.30;99.90
3190;DHT22;1606;51.946;10.558;2022-10-03T18:00:34;17.30;99.90
3190;DHT22;1606;51.946;10.558;2022-10-03T18:03:08;17.00;99.90
3190;DHT22;1606;51.946;10.558;2022-10-03T18:05:41;16.80;99.90
3190;DHT22;1606;51.946;10.558;2022-10-03T18:08:13;16.70;99.90
3190;DHT22;1606;51.946;10.558;2022-10-03T18:10:47;16.90;99.90
3190;DHT22;1606;51.946;10.558;2022-10-03T18:13:19;17.00;99.90
3190;DHT22;1606;51.946;10.558;2022-10-03T18:16:06;17.10;99.90
3190;DHT22;1606;51.946;10.558;2022-10-03T18:19:04;17.10;99.90
3190;DHT22;1606;51.946;10.558;2022-10-03T18:24:49;17.00;99.90
3190;DHT22;1606;51.946;10.558;2022-10-03T18:27:47;17.10;99.90
3190;DHT22;1606;51.946;10.558;2022-10-03T18:30:23;16.80;99.90
3190;DHT22;1606;51.946;10.558;2022-10-03T18:32:54;16.80;99.90
3190;DHT22;1606;51.946;10.558;2022-10-03T18:35:26;16.90;99.90
3190;DHT22;1606;51.946;10.558;2022-10-03T18:38:02;16.90;99.90
3190;DHT22;1606;51.946;10.558;2022-10-03T18:40:33;16.70;99.90
3190;DHT22;1606;51.946;10.558;2022-10-03T18:43:04;16.70;99.90
3190;DHT22;1606;51.946;10.558;2022-10-03T18:45:41;16.80;99.90
3190;DHT22;1606;51.946;10.558;2022-10-03T18:48:13;16.60;99.90
3190;DHT22;1606;51.946;10.558;2022-10-03T18:50:53;16.70;99.90
3190;DHT22;1606;51.946;10.558;2022-10-03T18:53:30;16.70;99.90
3190;DHT22;1606;51.946;10.558;2022-10-03T18:56:02;16.50;99.90
3190;DHT22;1606;51.946;10.558;2022-10-03T18:58:33;16.50;99.90
3190;DHT22;1606;51.946;10.558;2022-10-03T19:01:05;16.60;99.90
3190;DHT22;1606;51.946;10.558;2022-10-03T19:03:37;16.50;99.90
3190;DHT22;1606;51.946;10.558;2022-10-03T19:06:14;16.60;99.90
3190;DHT22;1606;51.946;10.558;2022-10-03T19:08:49;16.70;99.90
3190;DHT22;1606;51.946;10.558;2022-10-03T19:11:21;16.50;99.90
3190;DHT22;1606;51.946;10.558;2022-10-03T19:13:57;16.60;99.90
3190;DHT22;1606;51.946;10.558;2022-10-03T19:16:39;16.60;99.90
3190;DHT22;1606;51.946;10.558;2022-10-03T19:19:12;16.70;99.90
3190;DHT22;1606;51.946;10.558;2022-10-03T19:21:43;16.90;99.90
3190;DHT22;1606;51.946;10.558;2022-10-03T19:24:14;17.00;99.90
3190;DHT22;1606;51.946;10.558;2022-10-03T19:27:03;16.90;99.90
3190;DHT22;1606;51.946;10.558;2022-10-03T19:29:33;16.80;99.90
3190;DHT22;1606;51.946;10.558;2022-10-03T19:32:05;16.80;99.90
3190;DHT22;1606;51.946;10.558;2022-10-03T19:34:36;16.70;99.90
3190;DHT22;1606;51.946;10.558;2022-10-03T19:37:12;16.80;99.90
3190;DHT22;1606;51.946;10.558;2022-10-03T19:39:42;16.90;99.90
3190;DHT22;1606;51.946;10.558;2022-10-03T19:42:23;16.90;99.90